ADDS METAR Data INFO
IDs: Format: Raw Decoded Include TAF

Data at: 2248 UTC 11 Dec 2017

KACB 112235Z AUTO 19005KT 10SM OVC016 M05/M06 A2971 RMK AO2 T10501057
KACB 112215Z AUTO 19005KT 5SM -SN OVC016 M05/M06 A2972 RMK AO2 T10501057
KACB 112155Z AUTO 18004KT 5SM -SN OVC018 M05/M06 A2973 RMK AO2 T10501060
KACB 112135Z AUTO 18005KT 3SM -SN OVC016 M05/M06 A2973 RMK AO2 T10501061
KACB 112115Z AUTO 18005KT 10SM -SN OVC018 M05/M06 A2973 RMK AO2 T10501065
KACB 112055Z AUTO 18005KT 10SM -SN OVC020 M05/M07 A2973 RMK AO2 T10501066
KACB 112035Z AUTO 17005KT 7SM -SN OVC022 M05/M07 A2974 RMK AO2 T10501067
KACB 112015Z AUTO 18006KT 4SM -SN OVC024 M05/M06 A2975 RMK AO2 T10501065
KACB 111955Z AUTO 19004KT 3SM -SN OVC028 M05/M07 A2975 RMK AO2 T10511066
KACB 111935Z AUTO 16004KT 2SM -SN OVC025 M05/M07 A2976 RMK AO2 T10501066
KACB 111855Z AUTO 18004KT 2 1/2SM -SN BKN027 OVC033 M05/M07 A2979 RMK AO2 T10521066
KACB 111835Z AUTO 17005KT 1 1/2SM -SN OVC030 M05/M07 A2979 RMK AO2 T10531069
KACB 111815Z AUTO 14003KT 2 1/2SM -SN BKN033 OVC041 M05/M07 A2982 RMK AO2 VIS 2V4 T10551070
KACB 111755Z AUTO 00000KT 1 3/4SM -SN BKN027 OVC032 M06/M07 A2983 RMK AO2 T10571070 11057 21077
KACB 111735Z AUTO 14004KT 1 3/4SM -SN SCT016 OVC028 M06/M07 A2984 RMK AO2 T10601073
KACB 111715Z AUTO 15005KT 1SM -SN OVC016 M06/M07 A2986 RMK AO2 T10611075
KACB 111655Z AUTO 17006KT 3SM -SN BKN031 OVC036 M06/M08 A2987 RMK AO2 T10601078
KACB 111635Z AUTO 16006KT 4SM -SN OVC028 M06/M08 A2989 RMK AO2 T10611077
KACB 111615Z AUTO 18006KT 3SM -SN OVC030 M06/M08 A2991 RMK AO2 T10611080
KACB 111555Z AUTO 18007KT 4SM -SN OVC030 M06/M08 A2992 RMK AO2 T10601084
KACB 111535Z AUTO 17007KT 10SM -SN BKN031 OVC037 M06/M09 A2993 RMK AO2 T10601088
KACB 111515Z AUTO 17006KT 10SM BKN033 BKN041 OVC048 M06/M09 A2993 RMK AO2 T10601091
KACB 111455Z AUTO 16004KT 10SM BKN035 BKN044 OVC050 M06/M09 A2993 RMK AO2 T10611093
KACB 111435Z AUTO 19003KT 10SM BKN035 BKN060 OVC080 M06/M09 A2994 RMK AO2 T10611093
KACB 111415Z AUTO 00000KT 10SM SCT029 OVC080 M06/M09 A2995 RMK AO2 T10651091
KACB 111355Z AUTO 00000KT 10SM BKN031 OVC080 M07/M09 A2995 RMK AO2 T10701092
KACB 111335Z AUTO 00000KT 10SM OVC029 M07/M09 A2995 RMK AO2 T10701092
KACB 111315Z AUTO 18004KT 10SM OVC029 M07/M09 A2995 RMK AO2 T10721093
KACB 111255Z AUTO 19004KT 10SM OVC031 M07/M09 A2996 RMK AO2 T10721093
KACB 111235Z AUTO 21004KT 10SM OVC031 M07/M09 A2996 RMK AO2 T10741091
KACB 111215Z AUTO 00000KT 10SM OVC031 M07/M09 A2995 RMK AO2 T10751092
KACB 111155Z AUTO 00000KT 10SM OVC031 M07/M09 A2995 RMK AO2 T10751092 11073 21078
KACB 111135Z AUTO 16003KT 10SM OVC031 M07/M09 A2996 RMK AO2 T10751092
KACB 111115Z AUTO 13003KT 10SM OVC029 M08/M09 A2997 RMK AO2 T10761093
KACB 111056Z AUTO 00000KT 7SM OVC031 M08/M09 A2998 RMK AO2 T10761093
KACB 111035Z AUTO 00000KT 10SM OVC031 M08/M09 A2998 RMK AO2 T10781095
KACB 111015Z AUTO 00000KT 10SM OVC031 M08/M09 A2997 RMK AO2 T10761092
KACB 110956Z AUTO 00000KT 7SM -SN OVC029 M08/M09 A2998 RMK AO2 T10771093
KACB 110935Z AUTO 00000KT 10SM -SN OVC033 M08/M09 A2999 RMK AO2 T10761092
KACB 110915Z AUTO 00000KT 10SM -SN OVC033 M07/M09 A3000 RMK AO2 T10751092
KACB 110856Z AUTO 00000KT 7SM -SN OVC031 M08/M09 A3000 RMK AO2 T10761093
KACB 110835Z AUTO 00000KT 7SM -SN OVC031 M07/M09 A3002 RMK AO2 T10751095
KACB 110815Z AUTO 00000KT 10SM -SN OVC033 M08/M10 A3002 RMK AO2 T10761096
KACB 110756Z AUTO 00000KT 10SM OVC033 M07/M09 A3003 RMK AO2 T10751095
KACB 110735Z AUTO 20003KT 10SM OVC035 M07/M09 A3002 RMK AO2 T10751093
KACB 110715Z AUTO 00000KT 10SM -SN OVC033 M07/M09 A3001 RMK AO2 T10751093
KACB 110656Z AUTO 00000KT 10SM -SN OVC033 M07/M10 A3001 RMK AO2 T10751100
KACB 110635Z AUTO 00000KT 10SM -SN SCT022 OVC030 M07/M10 A3001 RMK AO2 T10741100
KACB 110615Z AUTO 00000KT 10SM SCT020 OVC032 M07/M11 A3001 RMK AO2 T10731108
KACB 110555Z AUTO 00000KT 10SM OVC030 M07/M11 A3000 RMK AO2 T10751106 11051 21075 410171075
KACB 110535Z AUTO 00000KT 10SM OVC030 M07/M11 A3000 RMK AO2 T10751106
KACB 110515Z AUTO 00000KT 10SM OVC030 M07/M11 A3000 RMK AO2 T10711109
KACB 110455Z AUTO 03003KT 10SM OVC030 M07/M11 A3002 RMK AO2 T10711110
KACB 110435Z AUTO 00000KT 10SM OVC030 M07/M11 A3002 RMK AO2 T10701111
KACB 110415Z AUTO 02003KT 10SM OVC030 M07/M11 A3002 RMK AO2 T10701115
KACB 110355Z AUTO 00000KT 10SM OVC030 M07/M11 A3002 RMK AO2 T10701111
KACB 110335Z AUTO 33004KT 10SM OVC030 M07/M11 A3002 RMK AO2 T10701115
KACB 110315Z AUTO 01003KT 10SM OVC030 M07/M11 A3002 RMK AO2 T10701115
KACB 110255Z AUTO 00000KT 10SM OVC032 M07/M11 A3001 RMK AO2 T10721115
KACB 110235Z AUTO 35003KT 10SM BKN032 OVC038 M07/M12 A3002 RMK AO2 T10721116
KACB 110215Z AUTO 34006KT 10SM BKN034 M07/M12 A3002 RMK AO2 T10721116
KACB 110155Z AUTO 34005KT 10SM OVC034 M07/M11 A3002 RMK AO2 T10701112
KACB 110135Z AUTO 35006G14KT 10SM OVC030 M07/M11 A3001 RMK AO2 T10681110
KACB 110115Z AUTO 34005G14KT 10SM OVC030 M07/M11 A3000 RMK AO2 T10661106
KACB 110055Z AUTO 33007KT 280V010 10SM BKN028 OVC034 M06/M10 A3000 RMK AO2 T10651102
KACB 110035Z AUTO 35009G17KT 10SM OVC026 M06/M09 A2999 RMK AO2 T10601094
KACB 110015Z AUTO 35008KT 10SM OVC028 M05/M09 A2998 RMK AO2 T10551090
KACB 102355Z AUTO 35005KT 10SM BKN030 OVC035 M05/M09 A2996 RMK AO2 T10501086 11017 21050
KACB 102335Z AUTO 33006KT 10SM OVC031 M05/M09 A2995 RMK AO2 T10471088
KACB 102315Z AUTO 34005KT 10SM OVC031 M05/M08 A2994 RMK AO2 T10461079
KACB 102255Z AUTO 35006KT 10SM SCT023 BKN033 OVC039 M04/M08 A2992 RMK AO2 T10451076
KACB 102235Z AUTO 33005KT 10SM SCT023 BKN030 OVC039 M04/M07 A2991 RMK AO2 T10411070
KACB 102215Z AUTO 35008KT 310V020 10SM -SN SCT024 BKN030 OVC037 M04/M07 A2989 RMK AO2 T10401067
KACB 102155Z AUTO 34005KT 10SM BKN037 OVC042 M03/M07 A2987 RMK AO2 T10331072
KACB 102135Z AUTO 00000KT 10SM BKN031 OVC038 M03/M07 A2987 RMK AO2 T10321069
KACB 102115Z AUTO 36004KT 10SM OVC031 M03/M06 A2986 RMK AO2 T10301065
KACB 102055Z AUTO 35004KT 7SM SCT015 BKN029 OVC034 M03/M05 A2985 RMK AO2 T10311047
KACB 102035Z AUTO 35006KT 2SM -SN BKN017 OVC022 M03/M04 A2984 RMK AO2 T10301045
KACB 102015Z AUTO 34006KT 10SM SCT020 OVC026 M02/M05 A2982 RMK AO2 T10231047
KACB 101955Z AUTO 35006KT 10SM OVC024 M02/M05 A2981 RMK AO2 T10201049
KACB 101935Z AUTO 32005KT 10SM -SN BKN022 OVC031 M02/M04 A2981 RMK AO2 T10171044
KACB 101915Z AUTO 28007KT 7SM -SN SCT019 BKN027 OVC032 M02/M04 A2980 RMK AO2 T10201036
KACB 101855Z AUTO 25003KT 1 1/2SM -SN OVC019 M02/M03 A2980 RMK AO2 T10211030
KACB 101835Z AUTO 25004KT 2SM -SN BKN017 OVC024 M02/M03 A2980 RMK AO2 T10231032
KACB 101815Z AUTO 00000KT 1SM -SN OVC017 M02/M04 A2979 RMK AO2 T10211037
KACB 101755Z AUTO 28003KT 5SM -SN BKN022 OVC030 M02/M04 A2979 RMK AO2 T10211040 11020 21046
KACB 101735Z AUTO 28005KT 4SM -SN BKN026 OVC032 M02/M04 A2979 RMK AO2 T10201041
KACB 101716Z AUTO 23004KT 5SM -SN OVC026 M02/M04 A2979 RMK AO2 T10251038
KACB 101655Z AUTO 00000KT 1 1/4SM -SN BKN019 OVC026 M02/M04 A2980 RMK AO2 T10251037
KACB 101635Z AUTO 24003KT 2 1/2SM -SN SCT014 BKN022 OVC028 M03/M04 A2980 RMK AO2 T10261037
KACB 101615Z AUTO 00000KT 4SM -SN BKN015 OVC025 M03/M03 A2981 RMK AO2 T10281035
KACB 101555Z AUTO 24004KT 1 3/4SM -SN BKN012 OVC016 M03/M03 A2981 RMK AO2 T10301035
KACB 101535Z AUTO 00000KT 1 1/2SM -SN OVC010 M03/M04 A2981 RMK AO2 T10321036
KACB 101515Z AUTO 23004KT 1 1/4SM -SN OVC012 M03/M04 A2981 RMK AO2 T10331040
KACB 101455Z AUTO 23004KT 1 1/4SM -SN OVC014 M03/M04 A2981 RMK AO2 T10351041
KACB 101435Z AUTO 23004KT 2 1/2SM -SN OVC014 M04/M05 A2981 RMK AO2 T10401047
KACB 101415Z AUTO 20004KT 5SM -SN OVC014 M04/M05 A2981 RMK AO2 T10421050
KACB 101355Z AUTO 21004KT 7SM -SN OVC014 M04/M05 A2980 RMK AO2 T10451053
KACB 101335Z AUTO 20006KT 10SM -SN OVC014 M04/M06 A2981 RMK AO2 T10451056
KACB 101315Z AUTO 22005KT 10SM -SN OVC014 M04/M06 A2981 RMK AO2 T10421056
KACB 101255Z AUTO 22005KT 10SM -SN OVC016 M04/M06 A2981 RMK AO2 T10451060
KACB 101235Z AUTO 23004KT 10SM -SN OVC018 M04/M06 A2981 RMK AO2 T10451061
KACB 101215Z AUTO 23004KT 7SM -SN SCT018 BKN023 OVC028 M04/M06 A2982 RMK AO2 T10451062
KACB 101155Z AUTO 23005KT 10SM -SN SCT017 BKN022 OVC085 M05/M06 A2982 RMK AO2 T10461065 11043 21066
KACB 101135Z AUTO 22007KT 5SM -SN SCT020 BKN035 OVC085 M05/M07 A2982 RMK AO2 T10461066
KACB 101115Z AUTO 23005KT 5SM -SN SCT026 OVC035 M05/M07 A2982 RMK AO2 T10471070
KACB 101055Z AUTO 27005KT 7SM -SN BKN026 OVC035 M04/M07 A2982 RMK AO2 T10451073